Terminal Aerodrome Forecast
Issued by NWS

Home | Current Version | Previous Version | Text Only | Print | Product List | Glossary On
Versions: 1 2 3 4 5 6 7 8 9 10 11 12 13 14 15 16 17 18
058
FTUS43 KICT 291738
TAFSLN
TAF
KSLN 291738Z 2918/3018 VRB05KT P6SM SCT030
      TEMPO 2918/2921 BKN030
     FM292100 VRB05KT P6SM SCT035
     FM300100 08006KT P6SM SKC
     FM301400 12008KT P6SM SCT120=

USA.gov is the U.S. government's official web portal to all federal, state and local government web resources and services.